首页
METAR-TAF:

METAR-TAF

机场 :

Jendouba, 突尼斯

纬度: 36-29N, 经度: 008-48E, 海拔: 143米

当前天气观测

该预报发布于32分钟前的01:00 UTC
风速1节,风向多变
温度 15°C
湿度 88%
气压 1020 hPa
能見度: 8000
少量云层高于2000英尺

METAR: DTTN 170100Z VRB01KT 8000 FEW020 15/13 Q1020

时间: 02:32 (01:32 UTC)


TAF: 丢失

超过4000个机场的气象观测和天气预报(METAR&TAF报告)。

可查询的气象台以黄色和红色小点在地图上表示。

将鼠标移到小点上方,可查看气象台名称。

然后点击查看天气观测和预报。

如需切换地图:点击带黑十字的绿色按钮放大地图;点击带横线的绿色按钮缩小地图;或者点击绿色箭头查看邻近地区的地图。


METAR-TAF: